Terminal Aerodrome Forecast
Issued by NWS Grand Rapids, MI

Home | Current Version | Previous Version | Text Only | Print | Product List | Glossary On
Versions: 1 2 3 4 5 6 7 8 9 10 11 12 13 14 15 16 17 18 19 20 21 22 23 24 25
759
FTUS43 KGRR 210555 AAA
TAFGRR
TAF AMD
KGRR 210555Z 2106/2206 13004KT 1/4SM -DZ FG VV002
     FM211600 16006KT 4SM BR OVC015
     FM212100 15009KT P6SM BKN250=

USA.gov is the U.S. government's official web portal to all federal, state and local government web resources and services.